Terminal Aerodrome Forecast
Issued by NWS

Home | Current Version | Previous Version | Text Only | Print | Product List | Glossary On
Versions: 1 2 3 4 5 6 7 8 9 10 11 12 13 14 15
000
FTUS45 KTFX 200524
TAFGTF

TAF
KGTF 200520Z 2006/2106 26006KT P6SM BKN150
     FM201500 31010KT P6SM SCT040 BKN100
     FM202000 02006KT P6SM -RA OVC040=

USA.gov is the U.S. government's official web portal to all federal, state and local government web resources and services.